Track Юдин Владислав

Time Latitude Longitude Accuracy (66% radius in meters) Altitude (meters) Speed (km/hour) Bearing (degrees) Battery (%) GPS flag
09:49:04 55.737885 37.299020 5 159 0 342.26226806641 79 1 delete
09:48:52 55.737883 37.299035 5 173 0 209.45491027832 79 1 delete
09:48:40 55.737883 37.299035 5 171 0 209.45491027832 79 1 delete
09:48:28 55.737883 37.299035 5 171 0 209.45491027832 79 1 delete
09:48:16 55.737883 37.299035 5 170 0 209.45491027832 79 1 delete
09:48:03 55.737883 37.299035 5 176 0 209.45491027832 79 1 delete
09:47:51 55.737883 37.299035 5 175 0 209.45491027832 79 1 delete
09:47:38 55.737883 37.299035 5 175 0 209.45491027832 79 1 delete
09:47:26 55.737883 37.299035 5 174 0 209.45491027832 79 1 delete
09:47:13 55.737883 37.299035 5 174 0 209.45491027832 79 1 delete
09:47:01 55.737883 37.299035 5 176 0 209.45491027832 79 1 delete
09:46:48 55.737883 37.299035 5 176 0 209.45491027832 79 1 delete
09:46:36 55.737883 37.299035 10 175 0 209.45491027832 79 1 delete
09:46:23 55.737883 37.299035 5 175 0 209.45491027832 79 1 delete
09:46:11 55.737883 37.299035 5 175 0 209.45491027832 79 1 delete
09:45:58 55.737883 37.299035 5 176 0 209.45491027832 79 1 delete
09:45:46 55.737883 37.299035 10 176 0 209.45491027832 79 1 delete
09:45:34 55.737883 37.299035 5 175 0 209.45491027832 79 1 delete
09:45:22 55.737883 37.299035 5 175 0 209.45491027832 79 1 delete
09:45:09 55.737883 37.299035 5 174 0 209.45491027832 79 1 delete
09:44:57 55.737883 37.299035 5 172 0 209.45491027832 79 1 delete
09:44:44 55.737883 37.299035 5 175 0 209.45491027832 79 1 delete
09:44:32 55.737883 37.299035 5 172 0 209.45491027832 79 1 delete
09:44:20 55.737883 37.299035 5 172 0 209.45491027832 79 1 delete
09:44:07 55.737883 37.299035 5 170 0 209.45491027832 79 1 delete
09:43:55 55.737883 37.299035 5 176 0 209.45491027832 79 1 delete
09:43:42 55.737883 37.299035 5 178 0 209.45491027832 79 1 delete
09:43:29 55.737883 37.299035 5 178 0 209.45491027832 80 1 delete
09:43:17 55.737883 37.299035 5 177 0 209.45491027832 80 1 delete
09:43:04 55.737883 37.299035 10 178 0 209.45491027832 80 1 delete
09:42:51 55.737883 37.299035 5 179 0 209.45491027832 80 1 delete
09:42:39 55.737883 37.299035 5 178 0 209.45491027832 80 1 delete
09:42:26 55.737883 37.299035 5 174 0 209.45491027832 80 1 delete
09:42:14 55.737883 37.299035 5 174 0 209.45491027832 80 1 delete
09:42:01 55.737883 37.299035 5 174 0 209.45491027832 80 1 delete
09:41:49 55.737883 37.299035 5 174 0 209.45491027832 80 1 delete
09:41:37 55.737883 37.299035 5 175 0 209.45491027832 80 1 delete
09:41:24 55.737883 37.299035 5 175 0 209.45491027832 80 1 delete
09:41:12 55.737883 37.299035 5 174 0 209.45491027832 80 1 delete
09:40:59 55.737883 37.299035 5 171 0 209.45491027832 80 1 delete
09:40:47 55.737883 37.299035 5 174 0 209.45491027832 80 1 delete
09:40:33 55.737883 37.299035 5 174 0 209.45491027832 80 1 delete
09:40:21 55.737883 37.299035 5 176 0 209.45491027832 80 1 delete
09:40:08 55.737883 37.299035 5 177 0 209.45491027832 80 1 delete
09:39:56 55.737883 37.299035 5 174 0 209.45491027832 80 1 delete
09:39:44 55.737883 37.299035 10 174 0 209.45491027832 80 1 delete
09:39:31 55.737883 37.299035 5 172 0 209.45491027832 80 1 delete
09:39:18 55.737907 37.299058 5 177 0.37682339549065 210.67892456055 80 1 delete
09:39:05 55.737910 37.299070 5 177 0 324.56182861328 80 1 delete
09:38:52 55.737910 37.299070 5 177 0 324.56182861328 80 1 delete